sensor_id;sensor_type;location;lat;lon;timestamp;P1;durP1;ratioP1;P2;durP2;ratioP2
53971;SDS011;40530;53.062;6.078;2023-05-20T00:01:14;17.48;;;4.97;;
53971;SDS011;40530;53.062;6.078;2023-05-20T00:03:40;14.27;;;4.75;;
53971;SDS011;40530;53.062;6.078;2023-05-20T00:06:06;11.63;;;4.35;;
53971;SDS011;40530;53.062;6.078;2023-05-20T00:08:32;10.00;;;4.32;;
53971;SDS011;40530;53.062;6.078;2023-05-20T00:10:58;17.23;;;4.63;;
53971;SDS011;40530;53.062;6.078;2023-05-20T00:13:24;13.75;;;4.32;;
53971;SDS011;40530;53.062;6.078;2023-05-20T00:15:51;15.55;;;5.53;;
53971;SDS011;40530;53.062;6.078;2023-05-20T00:18:17;15.20;;;5.47;;
53971;SDS011;40530;53.062;6.078;2023-05-20T00:20:43;13.93;;;4.80;;
53971;SDS011;40530;53.062;6.078;2023-05-20T00:23:09;20.40;;;5.90;;
53971;SDS011;40530;53.062;6.078;2023-05-20T00:25:35;13.05;;;4.55;;
53971;SDS011;40530;53.062;6.078;2023-05-20T00:28:01;17.63;;;4.90;;
53971;SDS011;40530;53.062;6.078;2023-05-20T00:30:27;18.67;;;5.05;;
53971;SDS011;40530;53.062;6.078;2023-05-20T00:32:53;8.95;;;4.00;;
53971;SDS011;40530;53.062;6.078;2023-05-20T00:35:19;14.40;;;4.78;;
53971;SDS011;40530;53.062;6.078;2023-05-20T00:37:45;13.30;;;4.50;;
53971;SDS011;40530;53.062;6.078;2023-05-20T00:40:11;10.57;;;4.47;;
53971;SDS011;40530;53.062;6.078;2023-05-20T00:42:37;17.88;;;4.43;;
53971;SDS011;40530;53.062;6.078;2023-05-20T00:45:03;18.65;;;4.90;;
53971;SDS011;40530;53.062;6.078;2023-05-20T00:47:32;16.48;;;5.05;;
53971;SDS011;40530;53.062;6.078;2023-05-20T00:49:58;11.95;;;4.63;;
53971;SDS011;40530;53.062;6.078;2023-05-20T00:52:24;12.88;;;4.57;;
53971;SDS011;40530;53.062;6.078;2023-05-20T00:54:52;13.60;;;4.45;;
53971;SDS011;40530;53.062;6.078;2023-05-20T00:57:18;17.38;;;4.65;;
53971;SDS011;40530;53.062;6.078;2023-05-20T00:59:44;14.43;;;4.55;;
53971;SDS011;40530;53.062;6.078;2023-05-20T01:02:10;25.48;;;5.07;;
53971;SDS011;40530;53.062;6.078;2023-05-20T01:04:36;18.92;;;5.65;;
53971;SDS011;40530;53.062;6.078;2023-05-20T01:07:03;15.25;;;4.60;;
53971;SDS011;40530;53.062;6.078;2023-05-20T01:09:30;14.75;;;5.15;;
53971;SDS011;40530;53.062;6.078;2023-05-20T01:12:08;13.93;;;4.53;;
53971;SDS011;40530;53.062;6.078;2023-05-20T01:14:39;18.23;;;6.07;;
53971;SDS011;40530;53.062;6.078;2023-05-20T01:17:07;19.33;;;4.85;;
53971;SDS011;40530;53.062;6.078;2023-05-20T01:19:43;16.92;;;5.10;;
53971;SDS011;40530;53.062;6.078;2023-05-20T01:22:09;14.55;;;4.80;;
53971;SDS011;40530;53.062;6.078;2023-05-20T01:24:43;12.93;;;4.75;;
53971;SDS011;40530;53.062;6.078;2023-05-20T01:27:10;12.82;;;4.82;;
53971;SDS011;40530;53.062;6.078;2023-05-20T01:29:37;10.95;;;4.88;;
53971;SDS011;40530;53.062;6.078;2023-05-20T01:32:05;13.15;;;4.50;;
53971;SDS011;40530;53.062;6.078;2023-05-20T01:34:32;17.35;;;5.70;;
53971;SDS011;40530;53.062;6.078;2023-05-20T01:37:01;13.85;;;5.15;;
53971;SDS011;40530;53.062;6.078;2023-05-20T01:39:27;12.98;;;5.45;;
53971;SDS011;40530;53.062;6.078;2023-05-20T01:41:54;13.35;;;5.35;;
53971;SDS011;40530;53.062;6.078;2023-05-20T01:44:21;19.15;;;5.30;;
53971;SDS011;40530;53.062;6.078;2023-05-20T01:46:47;16.77;;;4.90;;
53971;SDS011;40530;53.062;6.078;2023-05-20T01:49:14;10.52;;;5.05;;
53971;SDS011;40530;53.062;6.078;2023-05-20T01:51:40;10.70;;;4.32;;
53971;SDS011;40530;53.062;6.078;2023-05-20T01:54:06;13.25;;;4.70;;
53971;SDS011;40530;53.062;6.078;2023-05-20T01:56:32;14.32;;;4.65;;
53971;SDS011;40530;53.062;6.078;2023-05-20T01:58:59;16.60;;;4.82;;
53971;SDS011;40530;53.062;6.078;2023-05-20T02:01:25;14.68;;;5.20;;
53971;SDS011;40530;53.062;6.078;2023-05-20T02:03:51;10.70;;;4.43;;
53971;SDS011;40530;53.062;6.078;2023-05-20T02:06:16;14.15;;;5.20;;
53971;SDS011;40530;53.062;6.078;2023-05-20T02:08:42;12.68;;;4.57;;
53971;SDS011;40530;53.062;6.078;2023-05-20T02:11:08;13.57;;;5.05;;
53971;SDS011;40530;53.062;6.078;2023-05-20T02:13:34;13.63;;;5.13;;
53971;SDS011;40530;53.062;6.078;2023-05-20T02:16:00;13.10;;;5.05;;
53971;SDS011;40530;53.062;6.078;2023-05-20T02:18:26;14.77;;;4.90;;
53971;SDS011;40530;53.062;6.078;2023-05-20T02:20:52;9.10;;;5.35;;
53971;SDS011;40530;53.062;6.078;2023-05-20T02:23:18;15.40;;;5.00;;
53971;SDS011;40530;53.062;6.078;2023-05-20T02:25:45;11.00;;;4.45;;
53971;SDS011;40530;53.062;6.078;2023-05-20T02:28:11;11.60;;;4.70;;
53971;SDS011;40530;53.062;6.078;2023-05-20T02:30:37;14.98;;;5.43;;
53971;SDS011;40530;53.062;6.078;2023-05-20T02:33:03;9.38;;;5.07;;
53971;SDS011;40530;53.062;6.078;2023-05-20T02:35:29;11.85;;;5.25;;
53971;SDS011;40530;53.062;6.078;2023-05-20T02:37:55;9.52;;;4.93;;
53971;SDS011;40530;53.062;6.078;2023-05-20T02:40:21;11.35;;;4.82;;
53971;SDS011;40530;53.062;6.078;2023-05-20T02:42:47;11.07;;;5.70;;
53971;SDS011;40530;53.062;6.078;2023-05-20T02:45:13;18.23;;;5.75;;
53971;SDS011;40530;53.062;6.078;2023-05-20T02:47:39;11.52;;;5.13;;
53971;SDS011;40530;53.062;6.078;2023-05-20T02:50:05;15.00;;;5.28;;
53971;SDS011;40530;53.062;6.078;2023-05-20T02:52:31;15.45;;;4.55;;
53971;SDS011;40530;53.062;6.078;2023-05-20T02:54:59;12.05;;;4.70;;
53971;SDS011;40530;53.062;6.078;2023-05-20T02:57:25;8.52;;;4.40;;
53971;SDS011;40530;53.062;6.078;2023-05-20T02:59:52;16.27;;;4.95;;
53971;SDS011;40530;53.062;6.078;2023-05-20T03:02:18;11.55;;;4.35;;
53971;SDS011;40530;53.062;6.078;2023-05-20T03:04:44;12.45;;;4.43;;
53971;SDS011;40530;53.062;6.078;2023-05-20T03:07:11;11.93;;;4.63;;
53971;SDS011;40530;53.062;6.078;2023-05-20T03:09:38;12.02;;;4.32;;
53971;SDS011;40530;53.062;6.078;2023-05-20T03:12:05;12.93;;;5.05;;
53971;SDS011;40530;53.062;6.078;2023-05-20T03:14:31;10.35;;;4.88;;
53971;SDS011;40530;53.062;6.078;2023-05-20T03:16:57;12.40;;;4.78;;
53971;SDS011;40530;53.062;6.078;2023-05-20T03:19:24;11.68;;;5.93;;
53971;SDS011;40530;53.062;6.078;2023-05-20T03:21:50;12.63;;;4.55;;
53971;SDS011;40530;53.062;6.078;2023-05-20T03:24:16;11.50;;;4.55;;
53971;SDS011;40530;53.062;6.078;2023-05-20T03:26:42;17.38;;;5.78;;
53971;SDS011;40530;53.062;6.078;2023-05-20T03:29:10;11.27;;;5.65;;
53971;SDS011;40530;53.062;6.078;2023-05-20T03:31:36;9.80;;;4.85;;
53971;SDS011;40530;53.062;6.078;2023-05-20T03:34:02;12.00;;;4.65;;
53971;SDS011;40530;53.062;6.078;2023-05-20T03:36:28;15.77;;;6.07;;
53971;SDS011;40530;53.062;6.078;2023-05-20T03:38:55;19.17;;;5.25;;
53971;SDS011;40530;53.062;6.078;2023-05-20T03:41:21;10.65;;;4.55;;
53971;SDS011;40530;53.062;6.078;2023-05-20T03:43:47;9.02;;;4.90;;
53971;SDS011;40530;53.062;6.078;2023-05-20T03:46:13;9.27;;;4.07;;
53971;SDS011;40530;53.062;6.078;2023-05-20T03:48:39;13.45;;;4.82;;
53971;SDS011;40530;53.062;6.078;2023-05-20T03:51:05;12.30;;;4.40;;
53971;SDS011;40530;53.062;6.078;2023-05-20T03:53:32;16.45;;;5.10;;
53971;SDS011;40530;53.062;6.078;2023-05-20T03:55:58;10.23;;;4.45;;
53971;SDS011;40530;53.062;6.078;2023-05-20T03:58:24;13.65;;;4.53;;
53971;SDS011;40530;53.062;6.078;2023-05-20T04:00:52;11.63;;;5.57;;
53971;SDS011;40530;53.062;6.078;2023-05-20T04:03:18;22.88;;;13.60;;
53971;SDS011;40530;53.062;6.078;2023-05-20T04:05:44;14.50;;;5.28;;
53971;SDS011;40530;53.062;6.078;2023-05-20T04:08:10;10.40;;;4.38;;
53971;SDS011;40530;53.062;6.078;2023-05-20T04:10:39;12.88;;;4.03;;
53971;SDS011;40530;53.062;6.078;2023-05-20T04:13:06;7.07;;;3.53;;
53971;SDS011;40530;53.062;6.078;2023-05-20T04:15:34;8.98;;;3.80;;
53971;SDS011;40530;53.062;6.078;2023-05-20T04:18:01;7.50;;;3.80;;
53971;SDS011;40530;53.062;6.078;2023-05-20T04:20:27;9.18;;;3.67;;
53971;SDS011;40530;53.062;6.078;2023-05-20T04:22:53;7.47;;;3.53;;
53971;SDS011;40530;53.062;6.078;2023-05-20T04:25:19;7.95;;;3.55;;
53971;SDS011;40530;53.062;6.078;2023-05-20T04:27:45;7.68;;;3.83;;
53971;SDS011;40530;53.062;6.078;2023-05-20T04:30:12;12.20;;;3.53;;
53971;SDS011;40530;53.062;6.078;2023-05-20T04:32:38;7.72;;;3.35;;
53971;SDS011;40530;53.062;6.078;2023-05-20T04:35:05;13.35;;;3.50;;
53971;SDS011;40530;53.062;6.078;2023-05-20T04:37:35;7.00;;;3.63;;
53971;SDS011;40530;53.062;6.078;2023-05-20T04:40:01;10.15;;;3.28;;
53971;SDS011;40530;53.062;6.078;2023-05-20T04:42:30;16.30;;;5.78;;
53971;SDS011;40530;53.062;6.078;2023-05-20T04:44:56;14.07;;;5.35;;
53971;SDS011;40530;53.062;6.078;2023-05-20T04:47:25;11.10;;;4.90;;
53971;SDS011;40530;53.062;6.078;2023-05-20T04:49:52;11.75;;;3.70;;
53971;SDS011;40530;53.062;6.078;2023-05-20T04:52:21;5.13;;;2.92;;
53971;SDS011;40530;53.062;6.078;2023-05-20T04:54:47;8.07;;;3.42;;
53971;SDS011;40530;53.062;6.078;2023-05-20T04:57:15;8.52;;;3.03;;
53971;SDS011;40530;53.062;6.078;2023-05-20T04:59:41;9.60;;;3.05;;
53971;SDS011;40530;53.062;6.078;2023-05-20T05:02:09;3.63;;;2.53;;
53971;SDS011;40530;53.062;6.078;2023-05-20T05:04:35;7.50;;;3.17;;
53971;SDS011;40530;53.062;6.078;2023-05-20T05:07:01;9.55;;;2.83;;
53971;SDS011;40530;53.062;6.078;2023-05-20T05:09:29;8.02;;;3.30;;
53971;SDS011;40530;53.062;6.078;2023-05-20T05:11:55;9.38;;;2.85;;
53971;SDS011;40530;53.062;6.078;2023-05-20T05:14:21;8.00;;;2.80;;
53971;SDS011;40530;53.062;6.078;2023-05-20T05:16:47;6.93;;;2.53;;
53971;SDS011;40530;53.062;6.078;2023-05-20T05:19:13;27.48;;;13.07;;
53971;SDS011;40530;53.062;6.078;2023-05-20T05:21:39;11.38;;;5.88;;
53971;SDS011;40530;53.062;6.078;2023-05-20T05:24:06;4.22;;;2.58;;
53971;SDS011;40530;53.062;6.078;2023-05-20T05:26:32;9.70;;;2.60;;
53971;SDS011;40530;53.062;6.078;2023-05-20T05:28:58;7.75;;;2.47;;
53971;SDS011;40530;53.062;6.078;2023-05-20T05:31:24;4.32;;;2.25;;
53971;SDS011;40530;53.062;6.078;2023-05-20T05:33:50;9.43;;;3.47;;
53971;SDS011;40530;53.062;6.078;2023-05-20T05:36:16;4.60;;;2.70;;
53971;SDS011;40530;53.062;6.078;2023-05-20T05:38:42;7.53;;;2.17;;
53971;SDS011;40530;53.062;6.078;2023-05-20T05:41:08;3.75;;;2.60;;
53971;SDS011;40530;53.062;6.078;2023-05-20T05:43:34;7.65;;;2.15;;
53971;SDS011;40530;53.062;6.078;2023-05-20T05:46:00;4.00;;;2.17;;
53971;SDS011;40530;53.062;6.078;2023-05-20T05:48:27;6.80;;;2.42;;
53971;SDS011;40530;53.062;6.078;2023-05-20T05:50:53;3.88;;;2.10;;
53971;SDS011;40530;53.062;6.078;2023-05-20T05:53:19;6.18;;;2.60;;
53971;SDS011;40530;53.062;6.078;2023-05-20T05:55:45;7.05;;;2.15;;
53971;SDS011;40530;53.062;6.078;2023-05-20T05:58:11;6.03;;;2.30;;
53971;SDS011;40530;53.062;6.078;2023-05-20T06:00:37;3.80;;;1.95;;
53971;SDS011;40530;53.062;6.078;2023-05-20T06:03:03;3.78;;;2.08;;
53971;SDS011;40530;53.062;6.078;2023-05-20T06:05:30;6.60;;;2.13;;
53971;SDS011;40530;53.062;6.078;2023-05-20T06:07:56;7.18;;;1.80;;
53971;SDS011;40530;53.062;6.078;2023-05-20T06:10:22;4.28;;;2.00;;
53971;SDS011;40530;53.062;6.078;2023-05-20T06:12:48;3.95;;;2.30;;
53971;SDS011;40530;53.062;6.078;2023-05-20T06:15:14;6.00;;;2.00;;
53971;SDS011;40530;53.062;6.078;2023-05-20T06:17:40;6.72;;;2.03;;
53971;SDS011;40530;53.062;6.078;2023-05-20T06:20:06;5.57;;;2.17;;
53971;SDS011;40530;53.062;6.078;2023-05-20T06:22:32;4.00;;;1.90;;
53971;SDS011;40530;53.062;6.078;2023-05-20T06:24:58;3.95;;;1.52;;
53971;SDS011;40530;53.062;6.078;2023-05-20T06:27:26;5.22;;;2.35;;
53971;SDS011;40530;53.062;6.078;2023-05-20T06:29:52;7.20;;;2.03;;
53971;SDS011;40530;53.062;6.078;2023-05-20T06:32:18;5.20;;;1.92;;
53971;SDS011;40530;53.062;6.078;2023-05-20T06:34:44;2.83;;;1.33;;
53971;SDS011;40530;53.062;6.078;2023-05-20T06:37:10;3.28;;;1.80;;
53971;SDS011;40530;53.062;6.078;2023-05-20T06:39:36;5.03;;;1.85;;
53971;SDS011;40530;53.062;6.078;2023-05-20T06:42:02;5.70;;;1.50;;
53971;SDS011;40530;53.062;6.078;2023-05-20T06:44:29;4.38;;;1.67;;
53971;SDS011;40530;53.062;6.078;2023-05-20T06:46:55;3.13;;;1.60;;
53971;SDS011;40530;53.062;6.078;2023-05-20T06:49:21;2.45;;;1.77;;
53971;SDS011;40530;53.062;6.078;2023-05-20T06:51:48;7.45;;;1.45;;
53971;SDS011;40530;53.062;6.078;2023-05-20T06:54:14;6.30;;;1.60;;
53971;SDS011;40530;53.062;6.078;2023-05-20T06:56:40;3.42;;;1.10;;
53971;SDS011;40530;53.062;6.078;2023-05-20T06:59:06;4.93;;;1.60;;
53971;SDS011;40530;53.062;6.078;2023-05-20T07:01:32;6.43;;;1.65;;
53971;SDS011;40530;53.062;6.078;2023-05-20T07:03:58;4.15;;;1.35;;
53971;SDS011;40530;53.062;6.078;2023-05-20T07:06:24;3.55;;;1.20;;
53971;SDS011;40530;53.062;6.078;2023-05-20T07:08:50;2.08;;;1.23;;
53971;SDS011;40530;53.062;6.078;2023-05-20T07:11:16;3.15;;;1.30;;
53971;SDS011;40530;53.062;6.078;2023-05-20T07:13:42;2.35;;;1.42;;
53971;SDS011;40530;53.062;6.078;2023-05-20T07:16:08;4.97;;;1.40;;
53971;SDS011;40530;53.062;6.078;2023-05-20T07:18:34;2.10;;;1.20;;
53971;SDS011;40530;53.062;6.078;2023-05-20T07:21:00;9.82;;;6.03;;
53971;SDS011;40530;53.062;6.078;2023-05-20T07:23:26;6.15;;;2.47;;
53971;SDS011;40530;53.062;6.078;2023-05-20T07:25:52;4.00;;;1.77;;
53971;SDS011;40530;53.062;6.078;2023-05-20T07:28:19;2.92;;;1.27;;
53971;SDS011;40530;53.062;6.078;2023-05-20T07:30:46;4.18;;;0.90;;
53971;SDS011;40530;53.062;6.078;2023-05-20T07:33:15;3.30;;;1.30;;
53971;SDS011;40530;53.062;6.078;2023-05-20T07:35:41;5.70;;;1.23;;
53971;SDS011;40530;53.062;6.078;2023-05-20T07:38:09;3.50;;;1.23;;
53971;SDS011;40530;53.062;6.078;2023-05-20T07:40:35;3.72;;;2.00;;
53971;SDS011;40530;53.062;6.078;2023-05-20T07:43:04;7.75;;;5.43;;
53971;SDS011;40530;53.062;6.078;2023-05-20T07:45:30;4.18;;;2.63;;
53971;SDS011;40530;53.062;6.078;2023-05-20T07:47:56;3.50;;;1.30;;
53971;SDS011;40530;53.062;6.078;2023-05-20T07:50:22;1.63;;;1.02;;
53971;SDS011;40530;53.062;6.078;2023-05-20T07:52:48;4.53;;;1.10;;
53971;SDS011;40530;53.062;6.078;2023-05-20T07:55:14;2.05;;;1.00;;
53971;SDS011;40530;53.062;6.078;2023-05-20T07:57:40;2.47;;;0.80;;
53971;SDS011;40530;53.062;6.078;2023-05-20T08:00:06;4.43;;;1.10;;
53971;SDS011;40530;53.062;6.078;2023-05-20T08:02:32;9.85;;;0.98;;
53971;SDS011;40530;53.062;6.078;2023-05-20T08:04:58;2.80;;;0.98;;
53971;SDS011;40530;53.062;6.078;2023-05-20T08:07:24;4.00;;;1.17;;
53971;SDS011;40530;53.062;6.078;2023-05-20T08:09:50;2.95;;;1.15;;
53971;SDS011;40530;53.062;6.078;2023-05-20T08:12:16;7.18;;;2.13;;
53971;SDS011;40530;53.062;6.078;2023-05-20T08:14:43;2.85;;;1.17;;
53971;SDS011;40530;53.062;6.078;2023-05-20T08:17:09;1.05;;;0.93;;
53971;SDS011;40530;53.062;6.078;2023-05-20T08:19:35;3.30;;;1.00;;
53971;SDS011;40530;53.062;6.078;2023-05-20T08:22:01;4.80;;;1.00;;
53971;SDS011;40530;53.062;6.078;2023-05-20T08:24:28;3.80;;;1.65;;
53971;SDS011;40530;53.062;6.078;2023-05-20T08:26:54;4.00;;;1.02;;
53971;SDS011;40530;53.062;6.078;2023-05-20T08:29:20;3.63;;;2.22;;
53971;SDS011;40530;53.062;6.078;2023-05-20T08:31:46;17.63;;;8.93;;
53971;SDS011;40530;53.062;6.078;2023-05-20T08:34:12;2.67;;;1.20;;
53971;SDS011;40530;53.062;6.078;2023-05-20T08:36:38;2.83;;;1.40;;
53971;SDS011;40530;53.062;6.078;2023-05-20T08:39:04;2.10;;;1.13;;
53971;SDS011;40530;53.062;6.078;2023-05-20T08:41:30;3.92;;;1.15;;
53971;SDS011;40530;53.062;6.078;2023-05-20T08:43:56;6.07;;;1.30;;
53971;SDS011;40530;53.062;6.078;2023-05-20T08:46:23;1.52;;;0.80;;
53971;SDS011;40530;53.062;6.078;2023-05-20T08:48:50;1.83;;;1.00;;
53971;SDS011;40530;53.062;6.078;2023-05-20T08:51:17;2.00;;;0.93;;
53971;SDS011;40530;53.062;6.078;2023-05-20T08:53:47;2.10;;;0.90;;
53971;SDS011;40530;53.062;6.078;2023-05-20T08:56:13;2.80;;;1.10;;
53971;SDS011;40530;53.062;6.078;2023-05-20T08:58:40;2.05;;;0.80;;
53971;SDS011;40530;53.062;6.078;2023-05-20T09:01:07;2.10;;;0.98;;
53971;SDS011;40530;53.062;6.078;2023-05-20T09:03:33;10.60;;;3.63;;
53971;SDS011;40530;53.062;6.078;2023-05-20T09:06:06;5.10;;;2.70;;
53971;SDS011;40530;53.062;6.078;2023-05-20T09:08:32;2.22;;;1.17;;
53971;SDS011;40530;53.062;6.078;2023-05-20T09:10:59;2.30;;;1.02;;
53971;SDS011;40530;53.062;6.078;2023-05-20T09:13:25;4.43;;;0.90;;
53971;SDS011;40530;53.062;6.078;2023-05-20T09:15:52;4.47;;;1.58;;
53971;SDS011;40530;53.062;6.078;2023-05-20T09:18:18;3.65;;;1.38;;
53971;SDS011;40530;53.062;6.078;2023-05-20T09:20:45;3.70;;;0.88;;
53971;SDS011;40530;53.062;6.078;2023-05-20T09:23:11;4.10;;;1.00;;
53971;SDS011;40530;53.062;6.078;2023-05-20T09:25:37;9.70;;;6.13;;
53971;SDS011;40530;53.062;6.078;2023-05-20T09:28:06;2.03;;;1.45;;
53971;SDS011;40530;53.062;6.078;2023-05-20T09:30:32;5.20;;;1.45;;
53971;SDS011;40530;53.062;6.078;2023-05-20T09:32:59;2.33;;;1.13;;
53971;SDS011;40530;53.062;6.078;2023-05-20T09:35:25;5.03;;;1.55;;
53971;SDS011;40530;53.062;6.078;2023-05-20T09:37:53;3.15;;;1.15;;
53971;SDS011;40530;53.062;6.078;2023-05-20T09:40:23;3.03;;;1.60;;
53971;SDS011;40530;53.062;6.078;2023-05-20T09:42:58;3.38;;;1.00;;
53971;SDS011;40530;53.062;6.078;2023-05-20T09:45:26;7.55;;;1.17;;
53971;SDS011;40530;53.062;6.078;2023-05-20T09:47:53;6.82;;;1.90;;
53971;SDS011;40530;53.062;6.078;2023-05-20T09:50:19;2.05;;;1.02;;
53971;SDS011;40530;53.062;6.078;2023-05-20T09:52:46;4.80;;;1.33;;
53971;SDS011;40530;53.062;6.078;2023-05-20T09:55:17;7.22;;;4.45;;
53971;SDS011;40530;53.062;6.078;2023-05-20T09:57:43;3.53;;;2.35;;
53971;SDS011;40530;53.062;6.078;2023-05-20T10:00:10;4.40;;;1.23;;
53971;SDS011;40530;53.062;6.078;2023-05-20T10:02:50;2.40;;;1.30;;
53971;SDS011;40530;53.062;6.078;2023-05-20T10:05:34;3.13;;;1.40;;
53971;SDS011;40530;53.062;6.078;2023-05-20T10:16:25;3.15;;;1.13;;
53971;SDS011;40530;53.062;6.078;2023-05-20T10:21:02;7.32;;;1.63;;
53971;SDS011;40530;53.062;6.078;2023-05-20T10:23:39;4.97;;;1.65;;
53971;SDS011;40530;53.062;6.078;2023-05-20T10:26:05;3.03;;;1.20;;
53971;SDS011;40530;53.062;6.078;2023-05-20T10:28:33;4.55;;;1.50;;
53971;SDS011;40530;53.062;6.078;2023-05-20T10:31:00;4.00;;;1.80;;
53971;SDS011;40530;53.062;6.078;2023-05-20T10:33:26;2.55;;;1.17;;
53971;SDS011;40530;53.062;6.078;2023-05-20T10:35:53;1.52;;;1.10;;
53971;SDS011;40530;53.062;6.078;2023-05-20T10:38:19;6.13;;;1.40;;
53971;SDS011;40530;53.062;6.078;2023-05-20T10:40:46;7.53;;;1.55;;
53971;SDS011;40530;53.062;6.078;2023-05-20T10:43:13;4.45;;;1.20;;
53971;SDS011;40530;53.062;6.078;2023-05-20T10:48:27;6.50;;;1.33;;
53971;SDS011;40530;53.062;6.078;2023-05-20T10:50:54;2.00;;;1.40;;
53971;SDS011;40530;53.062;6.078;2023-05-20T10:53:22;4.50;;;1.40;;
53971;SDS011;40530;53.062;6.078;2023-05-20T10:55:49;3.47;;;1.58;;
53971;SDS011;40530;53.062;6.078;2023-05-20T10:58:15;3.10;;;1.63;;
53971;SDS011;40530;53.062;6.078;2023-05-20T11:00:42;6.65;;;1.75;;
53971;SDS011;40530;53.062;6.078;2023-05-20T11:03:08;4.32;;;1.17;;
53971;SDS011;40530;53.062;6.078;2023-05-20T11:05:34;3.97;;;1.25;;
53971;SDS011;40530;53.062;6.078;2023-05-20T11:08:01;6.22;;;1.45;;
53971;SDS011;40530;53.062;6.078;2023-05-20T11:10:27;6.07;;;1.33;;
53971;SDS011;40530;53.062;6.078;2023-05-20T11:12:54;2.53;;;1.33;;
53971;SDS011;40530;53.062;6.078;2023-05-20T11:15:21;3.42;;;1.30;;
53971;SDS011;40530;53.062;6.078;2023-05-20T11:17:56;4.45;;;1.40;;
53971;SDS011;40530;53.062;6.078;2023-05-20T11:20:22;9.38;;;4.72;;
53971;SDS011;40530;53.062;6.078;2023-05-20T11:22:52;3.65;;;1.55;;
53971;SDS011;40530;53.062;6.078;2023-05-20T11:25:19;4.72;;;1.35;;
53971;SDS011;40530;53.062;6.078;2023-05-20T11:27:45;7.28;;;1.70;;
53971;SDS011;40530;53.062;6.078;2023-05-20T11:30:12;3.75;;;1.70;;
53971;SDS011;40530;53.062;6.078;2023-05-20T11:33:01;3.55;;;1.58;;
53971;SDS011;40530;53.062;6.078;2023-05-20T11:35:28;1.45;;;1.20;;
53971;SDS011;40530;53.062;6.078;2023-05-20T11:38:03;5.15;;;1.98;;
53971;SDS011;40530;53.062;6.078;2023-05-20T11:40:30;11.85;;;4.68;;
53971;SDS011;40530;53.062;6.078;2023-05-20T11:42:58;7.88;;;3.65;;
53971;SDS011;40530;53.062;6.078;2023-05-20T11:45:24;9.30;;;1.90;;
53971;SDS011;40530;53.062;6.078;2023-05-20T11:47:58;5.82;;;2.17;;
53971;SDS011;40530;53.062;6.078;2023-05-20T11:50:24;6.90;;;1.73;;
53971;SDS011;40530;53.062;6.078;2023-05-20T11:52:55;3.65;;;1.90;;
53971;SDS011;40530;53.062;6.078;2023-05-20T11:55:21;4.22;;;1.75;;
53971;SDS011;40530;53.062;6.078;2023-05-20T11:57:47;4.90;;;1.70;;
53971;SDS011;40530;53.062;6.078;2023-05-20T12:00:13;7.30;;;1.85;;
53971;SDS011;40530;53.062;6.078;2023-05-20T12:02:39;10.00;;;2.00;;
53971;SDS011;40530;53.062;6.078;2023-05-20T12:05:05;4.53;;;1.80;;
53971;SDS011;40530;53.062;6.078;2023-05-20T12:07:32;9.43;;;2.72;;
53971;SDS011;40530;53.062;6.078;2023-05-20T12:09:58;5.65;;;2.33;;
53971;SDS011;40530;53.062;6.078;2023-05-20T12:12:24;6.10;;;1.65;;
53971;SDS011;40530;53.062;6.078;2023-05-20T12:14:50;8.43;;;2.35;;
53971;SDS011;40530;53.062;6.078;2023-05-20T12:17:16;8.18;;;2.08;;
53971;SDS011;40530;53.062;6.078;2023-05-20T12:19:42;5.65;;;1.90;;
53971;SDS011;40530;53.062;6.078;2023-05-20T12:22:08;8.05;;;1.98;;
53971;SDS011;40530;53.062;6.078;2023-05-20T12:24:34;3.53;;;1.70;;
53971;SDS011;40530;53.062;6.078;2023-05-20T12:27:00;6.15;;;1.95;;
53971;SDS011;40530;53.062;6.078;2023-05-20T12:29:28;7.35;;;2.33;;
53971;SDS011;40530;53.062;6.078;2023-05-20T12:31:54;7.15;;;2.13;;
53971;SDS011;40530;53.062;6.078;2023-05-20T12:34:20;10.20;;;2.03;;
53971;SDS011;40530;53.062;6.078;2023-05-20T12:36:46;4.53;;;1.88;;
53971;SDS011;40530;53.062;6.078;2023-05-20T12:39:12;4.43;;;2.40;;
53971;SDS011;40530;53.062;6.078;2023-05-20T12:41:41;6.25;;;2.00;;
53971;SDS011;40530;53.062;6.078;2023-05-20T12:44:07;5.35;;;2.22;;
53971;SDS011;40530;53.062;6.078;2023-05-20T12:46:34;4.57;;;1.88;;
53971;SDS011;40530;53.062;6.078;2023-05-20T12:49:00;2.92;;;1.50;;
53971;SDS011;40530;53.062;6.078;2023-05-20T12:51:26;5.10;;;2.05;;
53971;SDS011;40530;53.062;6.078;2023-05-20T12:53:52;3.75;;;1.85;;
53971;SDS011;40530;53.062;6.078;2023-05-20T12:56:21;5.20;;;1.88;;
53971;SDS011;40530;53.062;6.078;2023-05-20T12:58:48;7.10;;;2.67;;
53971;SDS011;40530;53.062;6.078;2023-05-20T13:01:14;5.07;;;2.55;;
53971;SDS011;40530;53.062;6.078;2023-05-20T13:03:40;4.30;;;1.80;;
53971;SDS011;40530;53.062;6.078;2023-05-20T13:06:06;3.70;;;2.05;;
53971;SDS011;40530;53.062;6.078;2023-05-20T13:08:32;5.07;;;1.98;;
53971;SDS011;40530;53.062;6.078;2023-05-20T13:10:58;6.53;;;2.13;;
53971;SDS011;40530;53.062;6.078;2023-05-20T13:13:24;6.63;;;2.25;;
53971;SDS011;40530;53.062;6.078;2023-05-20T13:15:51;3.30;;;1.85;;
53971;SDS011;40530;53.062;6.078;2023-05-20T13:18:17;9.90;;;2.15;;
53971;SDS011;40530;53.062;6.078;2023-05-20T13:20:43;3.70;;;2.10;;
53971;SDS011;40530;53.062;6.078;2023-05-20T13:23:10;3.65;;;1.80;;
53971;SDS011;40530;53.062;6.078;2023-05-20T13:25:36;5.30;;;2.33;;
53971;SDS011;40530;53.062;6.078;2023-05-20T13:28:03;7.55;;;2.40;;
53971;SDS011;40530;53.062;6.078;2023-05-20T13:30:30;4.40;;;2.05;;
53971;SDS011;40530;53.062;6.078;2023-05-20T13:32:56;5.50;;;2.20;;
53971;SDS011;40530;53.062;6.078;2023-05-20T13:35:22;4.28;;;2.10;;
53971;SDS011;40530;53.062;6.078;2023-05-20T13:37:48;4.20;;;1.90;;
53971;SDS011;40530;53.062;6.078;2023-05-20T13:40:14;7.07;;;2.35;;
53971;SDS011;40530;53.062;6.078;2023-05-20T13:42:41;5.05;;;2.10;;
53971;SDS011;40530;53.062;6.078;2023-05-20T13:45:08;6.30;;;2.20;;
53971;SDS011;40530;53.062;6.078;2023-05-20T13:47:34;9.93;;;2.67;;
53971;SDS011;40530;53.062;6.078;2023-05-20T13:50:00;3.08;;;1.85;;
53971;SDS011;40530;53.062;6.078;2023-05-20T13:52:26;13.27;;;8.23;;
53971;SDS011;40530;53.062;6.078;2023-05-20T13:54:52;9.80;;;3.88;;
53971;SDS011;40530;53.062;6.078;2023-05-20T13:57:18;6.35;;;2.72;;
53971;SDS011;40530;53.062;6.078;2023-05-20T13:59:44;11.30;;;2.42;;
53971;SDS011;40530;53.062;6.078;2023-05-20T14:02:10;4.95;;;2.28;;
53971;SDS011;40530;53.062;6.078;2023-05-20T14:04:36;7.20;;;2.67;;
53971;SDS011;40530;53.062;6.078;2023-05-20T14:07:06;7.93;;;2.80;;
53971;SDS011;40530;53.062;6.078;2023-05-20T14:09:32;5.57;;;2.40;;
53971;SDS011;40530;53.062;6.078;2023-05-20T14:11:58;4.47;;;2.00;;
53971;SDS011;40530;53.062;6.078;2023-05-20T14:14:24;3.63;;;2.15;;
53971;SDS011;40530;53.062;6.078;2023-05-20T14:16:50;5.53;;;2.53;;
53971;SDS011;40530;53.062;6.078;2023-05-20T14:19:16;7.28;;;2.38;;
53971;SDS011;40530;53.062;6.078;2023-05-20T14:21:42;5.57;;;2.10;;
53971;SDS011;40530;53.062;6.078;2023-05-20T14:24:08;5.50;;;2.13;;
53971;SDS011;40530;53.062;6.078;2023-05-20T14:26:34;6.07;;;1.98;;
53971;SDS011;40530;53.062;6.078;2023-05-20T14:29:00;6.53;;;2.50;;
53971;SDS011;40530;53.062;6.078;2023-05-20T14:31:26;12.52;;;2.80;;
53971;SDS011;40530;53.062;6.078;2023-05-20T14:33:52;7.03;;;2.10;;
53971;SDS011;40530;53.062;6.078;2023-05-20T14:36:19;9.73;;;2.38;;
53971;SDS011;40530;53.062;6.078;2023-05-20T14:38:45;6.13;;;3.53;;
53971;SDS011;40530;53.062;6.078;2023-05-20T14:41:11;9.52;;;6.05;;
53971;SDS011;40530;53.062;6.078;2023-05-20T14:43:37;8.95;;;3.33;;
53971;SDS011;40530;53.062;6.078;2023-05-20T14:46:03;9.13;;;2.53;;
53971;SDS011;40530;53.062;6.078;2023-05-20T14:48:29;8.07;;;2.60;;
53971;SDS011;40530;53.062;6.078;2023-05-20T14:50:55;6.03;;;2.17;;
53971;SDS011;40530;53.062;6.078;2023-05-20T14:53:21;8.57;;;2.50;;